Archival Weather

Chicago O'Hare International

Chicago, Illinois (KORD)

Report from: Saturday, March 5, 2022 3:51 AM CST
Current time: Saturday, February 4, 2023 11:24 PM CST

Current weather
Weather history
Weather forecast

Temperature4.4°C (39.9°F)
Wind chill1.4°C (34.5°F)
Dew point-4.4°C (24.1°F)
Winds 7 kts (3.6 m/s, 8.1 mph) Southeast (140°)
Visibility10 mi. (16.1 km)
Clouds Few clouds 14,000 ft. (4,267 m)
Scattered clouds 25,000 ft. (7,620 m)
Altimeter30.02 in.Hg (1017 mB)
Relative humidity53 %
Density altitude-1,326 ft. (-404 m)
Sea-level pressure101.7 kPa (1017 mB, 30.03 in.Hg)
Remarks Automated weather observing station with precipitation discriminator
Flight conditions Visual Meteorological Conditions
Raw dataKORD 050951Z 14007KT 10SM FEW140 SCT250 04/M04 A3002 RMK AO2 SLP169 T00441044
An unhandled exception has occurred. See browser dev tools for details. Reload 🗙